createdAt,value
2023-01-23T06:50:59.779Z,33.17
2023-01-23T06:52:03.380Z,59.83
2023-01-23T06:53:05.932Z,81.50
2023-01-23T06:54:09.531Z,92.00
2023-01-23T06:55:13.200Z,94.83
2023-01-23T06:56:18.083Z,95.50
2023-01-23T06:57:20.697Z,104.67
2023-01-23T06:58:25.370Z,97.00
2023-01-23T06:59:28.163Z,96.83
2023-01-23T07:00:34.408Z,99.17
2023-01-23T07:01:39.691Z,98.83
2023-01-23T07:02:45.798Z,97.50
2023-01-23T07:03:49.589Z,99.33
2023-01-23T07:04:53.124Z,100.50
2023-01-23T07:05:57.476Z,101.83
2023-01-23T07:07:00.977Z,100.50
2023-01-23T07:08:05.024Z,100.50
2023-01-23T07:09:09.084Z,99.67
2023-01-23T07:10:12.486Z,99.67
2023-01-23T07:11:15.891Z,121.17
2023-01-23T07:12:19.047Z,109.17
2023-01-23T07:13:23.077Z,106.17
2023-01-23T07:14:28.656Z,104.50
2023-01-23T07:15:33.743Z,103.67
2023-01-23T07:16:36.377Z,103.00
2023-01-23T07:17:39.905Z,102.00
2023-01-23T07:18:42.464Z,101.83
2023-01-23T07:19:46.649Z,101.00
2023-01-23T07:20:51.768Z,101.00
2023-01-23T07:21:56.535Z,103.67
2023-01-23T07:23:00.004Z,106.50
2023-01-23T07:24:03.430Z,105.50
2023-01-23T07:25:06.572Z,104.67
2023-01-23T07:29:38.613Z,61.17
2023-01-23T07:30:41.545Z,71.33
2023-01-23T07:31:45.276Z,92.83
2023-01-23T07:32:48.862Z,100.17
2023-01-23T07:33:52.627Z,101.00
2023-01-23T07:34:55.275Z,101.17
2023-01-23T07:35:58.796Z,100.83
2023-01-23T07:37:01.465Z,100.50
2023-01-23T07:38:05.146Z,106.67
2023-01-23T07:39:08.014Z,96.00
2023-01-23T07:40:12.364Z,99.17
2023-01-23T07:41:14.929Z,102.67
2023-01-23T07:42:18.780Z,100.00
2023-01-23T07:43:22.434Z,102.00
2023-01-23T07:44:26.847Z,101.17
2023-01-23T07:45:30.479Z,102.83
2023-01-23T07:46:33.074Z,101.83
2023-01-23T07:47:36.612Z,101.00
2023-01-23T07:48:40.304Z,100.00
2023-01-23T07:49:42.925Z,100.83
2023-01-23T07:50:46.682Z,101.00
2023-01-23T07:51:50.304Z,101.00
2023-01-23T07:52:53.809Z,100.33
2023-01-23T07:53:58.601Z,100.17
2023-01-23T07:55:01.091Z,102.00
2023-01-23T07:56:05.778Z,101.33
2023-01-23T07:57:08.236Z,102.50
2023-01-23T07:58:11.802Z,101.00
2023-01-23T07:59:14.308Z,101.83
2023-01-23T08:00:20.035Z,102.50
2023-01-23T08:01:23.639Z,102.00
2023-01-23T08:02:27.176Z,102.00
2023-01-23T08:03:30.685Z,102.00
2023-01-23T08:04:33.157Z,113.83
2023-01-23T08:05:36.637Z,110.00
2023-01-23T08:06:39.161Z,106.17
2023-01-23T08:07:43.424Z,105.17
2023-01-23T08:08:48.230Z,102.83
2023-01-23T08:09:51.745Z,102.00
2023-01-23T08:12:29.181Z,102.00
2023-01-23T08:13:32.724Z,102.33
2023-01-23T08:14:35.298Z,104.50
2023-01-23T08:15:40.195Z,105.83
2023-01-23T08:16:42.741Z,112.33
2023-01-23T08:17:46.179Z,160.50
2023-01-23T08:18:49.654Z,127.33
2023-01-23T08:19:52.362Z,104.33
2023-01-23T08:20:56.364Z,87.50
2023-01-23T08:21:59.830Z,88.83
2023-01-23T08:23:02.665Z,91.67
2023-01-23T08:24:06.441Z,93.50
2023-01-23T08:25:10.294Z,94.83
2023-01-23T08:26:15.382Z,95.83
2023-01-23T08:27:19.000Z,96.50
2023-01-23T08:28:23.030Z,97.00
2023-01-23T08:29:25.786Z,97.00
2023-01-23T08:30:29.308Z,96.17
2023-01-23T08:31:33.228Z,94.83
2023-01-23T08:32:37.041Z,92.33
2023-01-23T08:33:41.135Z,89.50
2023-01-23T08:34:43.834Z,88.00
2023-01-23T08:35:51.107Z,86.67
2023-01-23T08:36:53.571Z,89.50
2023-01-23T08:37:57.192Z,92.00
2023-01-23T08:39:00.967Z,89.83
2023-01-23T08:40:04.896Z,87.67
2023-01-23T08:41:10.010Z,84.17
2023-01-23T08:42:13.958Z,80.83
2023-01-23T08:43:17.625Z,80.33
2023-01-23T08:44:21.093Z,80.00
2023-01-23T08:45:25.513Z,78.33
2023-01-23T08:46:29.433Z,79.17
2023-01-23T08:47:37.001Z,80.83
2023-01-23T08:48:41.015Z,86.50
2023-01-23T08:49:44.430Z,109.83
2023-01-23T08:50:48.079Z,107.83
2023-01-23T08:51:51.627Z,100.33
2023-01-23T08:52:55.842Z,85.67
2023-01-23T08:53:59.542Z,113.17
2023-01-23T08:55:03.146Z,117.50
2023-01-23T08:56:08.552Z,108.67
2023-01-23T08:57:12.552Z,107.00
2023-01-23T08:58:15.368Z,106.50
2023-01-23T08:59:19.004Z,116.00
2023-01-23T09:00:22.506Z,129.00
2023-01-23T09:01:27.621Z,138.83
2023-01-23T09:02:31.060Z,152.83
2023-01-23T09:03:35.904Z,167.83
2023-01-23T09:04:39.499Z,170.50
2023-01-23T09:05:43.036Z,161.83
2023-01-23T09:06:47.228Z,161.83
2023-01-23T09:07:51.032Z,181.33
2023-01-23T09:08:53.641Z,174.83
2023-01-23T09:09:57.387Z,169.67
2023-01-23T09:11:01.716Z,182.33
2023-01-23T09:12:05.364Z,187.17
2023-01-23T09:13:07.902Z,179.67
2023-01-23T09:14:11.444Z,176.33
2023-01-23T09:15:13.995Z,176.67
2023-01-23T09:16:17.687Z,182.83
2023-01-23T09:17:20.214Z,199.00
2023-01-23T09:18:24.937Z,208.50
2023-01-23T09:19:31.334Z,207.67
2023-01-23T09:20:34.374Z,222.33
2023-01-23T09:21:37.887Z,231.17
2023-01-23T09:22:40.416Z,224.50
2023-01-23T09:23:44.644Z,221.33
2023-01-23T09:24:48.322Z,215.83
2023-01-23T09:25:52.092Z,216.17
2023-01-23T09:26:55.608Z,221.83
2023-01-23T09:27:59.045Z,226.33
2023-01-23T09:29:02.707Z,230.00
2023-01-23T09:30:05.771Z,230.17
2023-01-23T09:31:11.289Z,229.00
2023-01-23T09:32:16.570Z,231.17
2023-01-23T09:33:24.672Z,230.67
2023-01-23T09:34:29.753Z,230.83
2023-01-23T09:35:32.987Z,240.33
2023-01-23T09:36:42.766Z,247.50
2023-01-23T09:38:01.435Z,240.00
2023-01-23T09:39:04.923Z,237.83
2023-01-23T09:40:16.113Z,237.00
2023-01-23T09:41:21.145Z,237.00
2023-01-23T09:42:35.012Z,239.33
2023-01-23T09:43:42.659Z,248.33
2023-01-23T09:44:49.684Z,247.33
2023-01-23T09:46:00.303Z,251.67
2023-01-23T09:47:08.144Z,254.17
2023-01-23T09:48:18.342Z,255.83
2023-01-23T09:49:27.256Z,254.83
2023-01-23T09:50:34.335Z,254.67
2023-01-23T09:51:45.861Z,297.17
2023-01-23T09:52:54.333Z,281.50
2023-01-23T09:54:01.897Z,269.17
2023-01-23T09:55:14.025Z,302.33
2023-01-23T09:56:29.853Z,283.17
2023-01-23T09:57:36.641Z,273.83
2023-01-23T09:58:43.348Z,272.50
2023-01-23T10:00:00.176Z,275.00
2023-01-23T10:01:04.605Z,274.83
2023-01-23T10:02:15.457Z,273.83
2023-01-23T10:03:19.041Z,273.00
2023-01-23T10:04:23.536Z,273.00
2023-01-23T10:05:30.636Z,273.83
2023-01-23T10:06:48.911Z,274.17
2023-01-23T10:08:00.755Z,274.00
2023-01-23T10:09:22.459Z,273.50
2023-01-23T10:10:35.823Z,269.00
2023-01-23T10:11:47.809Z,259.50
2023-01-23T10:12:59.046Z,255.33
2023-01-23T10:14:17.450Z,255.50
2023-01-23T10:15:27.532Z,254.17
2023-01-23T10:16:49.948Z,254.83
2023-01-23T10:18:00.161Z,236.67
2023-01-23T10:19:11.621Z,232.83
2023-01-23T10:20:21.033Z,232.50
2023-01-23T10:21:30.856Z,235.83
2023-01-23T10:22:40.277Z,236.17
2023-01-23T10:23:49.372Z,229.50
2023-01-23T10:24:54.930Z,222.33
2023-01-23T10:25:58.409Z,222.33
2023-01-23T10:27:05.157Z,224.83
2023-01-23T10:28:19.873Z,227.50
2023-01-23T10:29:29.977Z,228.83
2023-01-23T10:30:38.096Z,227.50
2023-01-23T10:31:45.789Z,226.17
2023-01-23T10:32:52.379Z,226.00
2023-01-23T10:34:05.067Z,226.00
2023-01-23T10:35:14.151Z,226.83
2023-01-23T10:36:25.303Z,226.33
2023-01-23T10:37:43.663Z,219.83
2023-01-23T10:38:51.335Z,214.17
2023-01-23T10:39:58.655Z,213.67
2023-01-23T10:41:21.189Z,214.33
2023-01-23T10:42:28.205Z,219.67
2023-01-23T10:43:31.713Z,218.17
2023-01-23T10:44:34.348Z,219.50
2023-01-23T10:45:38.984Z,221.17
2023-01-23T10:46:46.541Z,221.50
2023-01-23T10:47:55.257Z,226.00
2023-01-23T10:49:00.327Z,241.17
2023-01-23T10:50:03.995Z,263.33
2023-01-23T10:51:22.327Z,327.50
2023-01-23T10:52:33.991Z,317.33
2023-01-23T10:53:36.565Z,325.33
2023-01-23T10:54:48.016Z,368.83
2023-01-23T10:55:52.880Z,402.50
2023-01-23T10:56:58.275Z,402.50
2023-01-23T10:58:09.203Z,397.00
2023-01-23T10:59:19.515Z,425.17
2023-01-23T11:00:27.435Z,441.33
2023-01-23T11:01:31.851Z,455.33
2023-01-23T11:02:36.083Z,453.50
2023-01-23T11:03:38.889Z,456.83
2023-01-23T11:04:44.207Z,461.50
2023-01-23T11:05:53.391Z,469.33
2023-01-23T11:07:08.474Z,470.00
2023-01-23T11:08:24.446Z,466.33
2023-01-23T11:09:26.955Z,464.17
2023-01-23T11:10:32.018Z,464.50
2023-01-23T11:11:34.513Z,465.00
2023-01-23T11:12:49.025Z,466.00
2023-01-23T11:14:04.900Z,467.17
2023-01-23T11:15:29.060Z,468.67
2023-01-23T11:16:31.779Z,468.50
2023-01-23T11:17:35.309Z,467.00
2023-01-23T11:18:42.647Z,466.83
2023-01-23T11:19:47.460Z,465.67
2023-01-23T11:20:56.243Z,465.00
2023-01-23T11:21:59.686Z,464.67
2023-01-23T11:23:05.305Z,464.00
2023-01-23T11:24:09.540Z,463.50
2023-01-23T11:25:28.659Z,463.00
2023-01-23T11:26:34.257Z,462.00
2023-01-23T11:27:37.721Z,460.83
2023-01-23T11:28:48.226Z,460.00
2023-01-23T11:30:06.527Z,458.83
2023-01-23T11:31:15.072Z,456.83
2023-01-23T11:32:19.000Z,453.67
2023-01-23T11:33:34.937Z,449.67
2023-01-23T11:34:42.454Z,446.50
2023-01-23T11:35:53.027Z,442.17
2023-01-23T11:37:04.294Z,440.17
2023-01-23T11:38:12.767Z,439.50
2023-01-23T11:39:23.329Z,437.67
2023-01-23T11:40:26.738Z,437.50
2023-01-23T11:41:32.485Z,444.83
2023-01-23T11:42:40.532Z,449.50
2023-01-23T11:43:43.134Z,445.83
2023-01-23T11:44:48.297Z,438.33
2023-01-23T11:46:08.003Z,436.67
2023-01-23T11:47:24.487Z,437.17
2023-01-23T11:48:38.502Z,436.67
2023-01-23T11:49:56.240Z,437.17
2023-01-23T11:51:08.836Z,450.17
2023-01-23T11:52:25.180Z,469.67
2023-01-23T11:53:42.334Z,460.83
2023-01-23T11:54:58.994Z,467.67
2023-01-23T11:56:22.001Z,479.50
2023-01-23T11:57:33.348Z,459.83
2023-01-23T11:59:06.545Z,417.17
2023-01-23T12:00:24.337Z,434.00
2023-01-23T12:01:31.403Z,471.50
2023-01-23T12:02:45.494Z,472.17
2023-01-23T12:03:58.905Z,467.50
2023-01-23T12:05:16.904Z,463.17
2023-01-23T12:06:44.027Z,462.83
2023-01-23T12:07:53.588Z,464.33
2023-01-23T12:09:02.294Z,469.67
2023-01-23T12:10:17.591Z,485.83
2023-01-23T12:11:24.397Z,469.17
2023-01-23T12:12:37.636Z,414.17
2023-01-23T12:13:50.875Z,425.00
2023-01-23T12:15:01.936Z,437.50
2023-01-23T12:16:15.970Z,442.83
2023-01-23T12:17:29.121Z,429.67
2023-01-23T12:18:40.395Z,420.33
2023-01-23T12:19:52.297Z,416.00
2023-01-23T12:21:02.702Z,436.50
2023-01-23T12:22:10.485Z,458.50
2023-01-23T12:23:24.706Z,462.50
2023-01-23T12:24:40.845Z,428.17
2023-01-23T12:25:49.751Z,489.17
2023-01-23T12:27:00.844Z,490.67
2023-01-23T12:28:17.880Z,479.00
2023-01-23T12:29:36.796Z,414.50
2023-01-23T12:30:51.185Z,376.67
2023-01-23T12:32:12.424Z,358.00
2023-01-23T12:33:35.761Z,361.33
2023-01-23T12:35:02.541Z,385.17
2023-01-23T12:36:17.479Z,465.00
2023-01-23T12:37:31.655Z,433.00
2023-01-23T12:38:43.889Z,407.33
2023-01-23T12:39:57.480Z,417.17
2023-01-23T12:41:09.479Z,479.67
2023-01-23T12:42:17.083Z,461.17
2023-01-23T12:43:24.525Z,438.00
2023-01-23T12:44:33.833Z,427.00
2023-01-23T12:45:40.551Z,409.17
2023-01-23T12:46:47.941Z,410.00
2023-01-23T12:47:58.313Z,409.67
2023-01-23T12:49:13.851Z,406.33
2023-01-23T12:50:20.409Z,408.50
2023-01-23T12:51:28.111Z,409.67
2023-01-23T12:52:36.046Z,407.67
2023-01-23T12:53:43.032Z,407.50
2023-01-23T12:54:50.037Z,410.17
2023-01-23T12:56:00.283Z,402.00
2023-01-23T12:57:05.743Z,385.83
2023-01-23T12:58:16.137Z,395.50
2023-01-23T12:59:26.564Z,386.17
2023-01-23T13:00:47.066Z,387.33
2023-01-23T13:01:58.781Z,392.00
2023-01-23T13:03:15.009Z,398.83
2023-01-23T13:04:26.156Z,401.17
2023-01-23T13:05:36.080Z,404.83
2023-01-23T13:06:47.432Z,426.67
2023-01-23T13:07:58.586Z,410.17
2023-01-23T13:09:17.318Z,381.17
2023-01-23T13:10:51.713Z,369.33
2023-01-23T13:12:02.849Z,368.00
2023-01-23T13:13:07.212Z,352.00
2023-01-23T13:14:21.873Z,344.33
2023-01-23T13:15:39.883Z,344.17
2023-01-23T13:16:46.725Z,354.33
2023-01-23T13:17:51.759Z,343.00
2023-01-23T13:19:15.184Z,350.50
2023-01-23T13:20:41.424Z,365.50
2023-01-23T13:22:02.808Z,355.00
2023-01-23T13:23:23.029Z,350.50
2023-01-23T13:24:57.368Z,360.00
2023-01-23T13:26:19.643Z,350.17
2023-01-23T13:27:39.977Z,353.67
2023-01-23T13:28:46.165Z,353.00
2023-01-23T13:29:51.280Z,354.50
2023-01-23T13:31:01.602Z,364.00
2023-01-23T13:32:22.440Z,387.00
2023-01-23T13:34:03.546Z,398.00
2023-01-23T13:35:28.691Z,411.00
2023-01-23T13:36:37.729Z,414.00
2023-01-23T13:37:52.300Z,411.67
2023-01-23T13:39:25.546Z,419.17
2023-01-23T13:40:29.125Z,424.33
2023-01-23T13:41:33.047Z,420.17
2023-01-23T13:42:37.306Z,422.50
2023-01-23T13:43:44.172Z,437.00
2023-01-23T13:45:06.080Z,438.67
2023-01-23T13:46:20.348Z,437.33
2023-01-23T14:20:45.643Z,70.83
2023-01-23T14:21:52.256Z,81.83
2023-01-23T14:22:58.465Z,99.83
2023-01-23T14:24:04.060Z,121.33
2023-01-23T14:26:49.105Z,72.17
2023-01-23T14:28:03.726Z,113.33
2023-01-23T14:29:20.539Z,104.67
2023-01-23T14:30:26.487Z,107.00
2023-01-23T14:31:31.507Z,104.83
2023-01-23T14:32:34.144Z,103.33
2023-01-23T14:33:41.449Z,101.17
2023-01-23T14:34:43.938Z,102.00
2023-01-23T14:35:47.958Z,89.17
2023-01-23T14:36:54.342Z,99.83
2023-01-23T14:37:58.835Z,114.00
2023-01-23T14:39:03.415Z,107.50
2023-01-23T14:40:20.871Z,105.50
2023-01-23T14:41:38.185Z,102.17
2023-01-23T14:42:44.268Z,103.33
2023-01-23T14:43:48.144Z,101.33
2023-01-23T14:44:51.431Z,102.50
2023-01-23T14:46:00.956Z,103.50
2023-01-23T14:47:05.124Z,104.83
2023-01-23T14:48:15.106Z,103.83
2023-01-23T14:49:24.119Z,103.67
2023-01-23T14:50:28.830Z,104.67
2023-01-23T14:51:32.304Z,104.17
2023-01-23T14:52:34.761Z,102.00
2023-01-23T14:53:42.680Z,102.33
2023-01-23T14:55:05.681Z,102.50
2023-01-23T14:56:15.085Z,104.33
2023-01-23T14:57:21.346Z,105.67
2023-01-23T14:58:25.283Z,105.50
2023-01-23T14:59:31.747Z,107.67
2023-01-23T15:00:35.084Z,109.83
2023-01-23T15:01:38.576Z,110.50
2023-01-23T15:02:41.460Z,110.67
2023-01-23T15:03:46.012Z,111.17
2023-01-23T15:05:04.263Z,111.50
2023-01-23T15:06:10.360Z,132.33
2023-01-23T15:07:18.319Z,144.50
2023-01-23T15:08:26.841Z,58.00
2023-01-23T15:09:32.856Z,81.50
2023-01-23T15:10:43.907Z,110.17
2023-01-23T15:11:47.345Z,153.83
2023-01-23T15:12:54.139Z,178.33
2023-01-23T15:14:01.613Z,156.83
2023-01-23T15:15:04.495Z,160.33
2023-01-23T15:16:14.159Z,152.17
2023-01-23T15:17:20.848Z,181.67
2023-01-23T15:18:25.188Z,198.67
2023-01-23T15:19:28.997Z,236.83
2023-01-23T15:20:36.356Z,350.67
2023-01-23T15:21:40.940Z,393.83
2023-01-23T15:22:43.517Z,421.00
2023-01-23T15:24:00.139Z,470.67
2023-01-23T15:25:27.067Z,469.50
2023-01-23T15:26:33.477Z,439.83
2023-01-23T15:27:37.992Z,413.00
2023-01-23T15:28:48.727Z,385.67
2023-01-23T15:29:52.239Z,352.00
2023-01-23T15:30:54.869Z,344.17
2023-01-23T15:31:58.975Z,305.00
2023-01-23T15:33:07.151Z,232.00
2023-01-23T15:34:28.321Z,279.17
2023-01-23T15:35:30.800Z,318.83
2023-01-23T15:36:34.276Z,323.50
2023-01-23T15:37:38.156Z,318.67
2023-01-23T15:38:46.539Z,310.00
2023-01-23T15:39:51.623Z,306.33
2023-01-23T15:40:54.149Z,298.33
2023-01-23T15:41:59.103Z,285.67
2023-01-23T15:43:03.022Z,278.67
2023-01-23T15:44:14.110Z,273.83
2023-01-23T15:45:17.629Z,270.83
2023-01-23T15:46:20.119Z,265.50
2023-01-23T15:47:23.530Z,255.00
2023-01-23T15:48:25.977Z,246.00
2023-01-23T15:49:29.909Z,239.67
2023-01-23T15:50:32.682Z,244.67
2023-01-23T15:51:36.706Z,241.50
2023-01-23T15:52:47.595Z,245.00
2023-01-23T15:53:50.054Z,233.50
2023-01-23T15:54:55.015Z,234.33
2023-01-23T15:55:57.920Z,222.83
2023-01-23T15:57:08.261Z,222.50
2023-01-23T15:58:14.556Z,212.83
2023-01-23T15:59:19.049Z,213.00
2023-01-23T16:00:24.987Z,221.33
2023-01-23T16:01:27.495Z,217.67
2023-01-23T16:02:32.517Z,206.17
2023-01-23T16:03:36.039Z,203.17
2023-01-23T16:04:39.521Z,199.50
2023-01-23T16:05:42.987Z,191.83
2023-01-23T16:06:46.618Z,192.00
2023-01-23T16:07:51.060Z,183.83
2023-01-23T16:09:00.796Z,173.00
2023-01-23T16:10:16.948Z,173.00
2023-01-23T16:11:19.940Z,160.67
2023-01-23T16:12:28.221Z,162.00
2023-01-23T16:13:31.894Z,166.33
2023-01-23T16:14:36.624Z,160.67
2023-01-23T16:15:40.581Z,161.00
2023-01-23T16:16:43.128Z,153.17
2023-01-23T16:17:47.063Z,149.83
2023-01-23T16:18:50.520Z,147.83
2023-01-23T16:19:54.429Z,144.67
2023-01-23T16:20:56.952Z,134.67
2023-01-23T16:22:05.190Z,137.00
2023-01-23T16:23:15.569Z,128.83
2023-01-23T16:24:21.107Z,115.33
2023-01-23T16:25:38.249Z,128.50
2023-01-23T16:26:48.342Z,133.17
2023-01-23T16:27:50.819Z,135.83
2023-01-23T16:29:01.944Z,136.67
2023-01-23T16:30:18.879Z,135.33
2023-01-23T16:31:21.800Z,136.00
2023-01-23T16:32:26.014Z,135.50
2023-01-23T16:33:28.747Z,135.67
2023-01-23T16:34:32.215Z,135.50
2023-01-23T16:35:35.691Z,135.50
2023-01-23T16:36:38.857Z,134.50
2023-01-23T16:37:43.629Z,129.00
2023-01-23T16:38:50.515Z,122.17
2023-01-23T16:39:54.022Z,117.17
2023-01-23T16:40:59.588Z,109.33
2023-01-23T16:42:05.107Z,69.83
2023-01-23T16:43:08.553Z,61.33
2023-01-23T16:44:12.210Z,65.00
2023-01-23T16:45:16.320Z,121.83
2023-01-23T16:46:20.206Z,284.83
2023-01-23T16:47:23.676Z,361.67
2023-01-23T16:48:27.917Z,261.33
2023-01-23T16:49:35.944Z,213.67
2023-01-23T16:50:43.814Z,230.50
2023-01-23T16:51:48.107Z,195.50
2023-01-23T16:52:55.951Z,143.67
2023-01-23T16:54:05.909Z,172.67
2023-01-23T16:55:21.541Z,327.17
2023-01-23T16:56:29.837Z,383.50
2023-01-23T16:57:33.892Z,413.83
2023-01-23T16:58:39.798Z,421.33
2023-01-23T16:59:43.730Z,411.17
2023-01-23T17:00:47.474Z,321.00
2023-01-23T17:01:53.072Z,230.67
2023-01-23T17:02:58.497Z,199.00
2023-01-23T17:04:03.949Z,200.67
2023-01-23T17:05:07.328Z,229.50
2023-01-23T17:06:14.613Z,227.17
2023-01-23T17:07:19.074Z,221.00
2023-01-23T17:08:23.664Z,218.00
2023-01-23T17:09:27.139Z,219.17
2023-01-23T17:10:41.337Z,223.83
2023-01-23T17:11:51.397Z,227.67
2023-01-23T17:12:56.789Z,203.50
2023-01-23T17:14:02.004Z,201.33
2023-01-23T17:15:05.901Z,203.33
2023-01-23T17:16:21.850Z,208.33
2023-01-23T17:17:34.201Z,212.00
2023-01-23T17:18:37.092Z,192.50
2023-01-23T17:19:42.795Z,169.17
2023-01-23T17:20:46.263Z,171.00
2023-01-23T17:21:49.624Z,176.17
2023-01-23T17:22:53.066Z,172.83
2023-01-23T17:23:55.559Z,172.17
2023-01-23T17:24:59.071Z,170.00
2023-01-23T17:26:01.960Z,160.17
2023-01-23T17:27:05.558Z,165.83
2023-01-23T17:28:13.204Z,137.83
2023-01-23T17:29:16.860Z,120.33
2023-01-23T17:30:22.075Z,123.17
2023-01-23T17:31:27.387Z,133.33
2023-01-23T17:32:35.397Z,132.83
2023-01-23T17:33:37.927Z,130.17
2023-01-23T17:34:48.628Z,123.67
2023-01-23T17:35:54.388Z,128.33
2023-01-23T17:36:58.282Z,135.50
2023-01-23T17:38:01.370Z,141.33
2023-01-23T17:39:07.242Z,142.33
2023-01-23T17:40:13.257Z,142.50
2023-01-23T17:41:17.268Z,125.83
2023-01-23T17:42:21.639Z,109.00
2023-01-23T17:43:25.064Z,123.00
2023-01-23T17:44:28.460Z,126.67
2023-01-23T17:45:32.072Z,121.50
2023-01-23T17:46:39.420Z,116.17
2023-01-23T17:47:45.265Z,120.33
2023-01-23T17:48:47.743Z,121.17
2023-01-23T17:49:54.470Z,121.00
2023-01-23T17:50:57.573Z,118.17
2023-01-23T17:52:02.211Z,122.33
2023-01-23T17:53:04.747Z,132.17
2023-01-23T17:54:12.093Z,131.50
2023-01-23T17:55:16.117Z,137.83
2023-01-23T17:56:19.059Z,142.50
2023-01-23T17:57:22.492Z,147.33
2023-01-23T17:58:25.910Z,147.33
2023-01-23T17:59:29.327Z,150.17
2023-01-23T18:00:32.390Z,148.17
2023-01-23T18:01:35.848Z,146.83
2023-01-23T18:02:41.073Z,145.17
2023-01-23T18:03:45.915Z,145.17
2023-01-23T18:04:49.358Z,144.00
2023-01-23T18:05:53.522Z,144.33
2023-01-23T18:06:55.992Z,144.00
2023-01-23T18:07:59.404Z,140.33
2023-01-23T18:09:02.851Z,135.67
2023-01-23T18:10:05.557Z,136.33
2023-01-23T18:11:22.203Z,133.50
2023-01-23T18:12:29.672Z,118.67
2023-01-23T18:13:39.413Z,115.67
2023-01-23T18:14:48.209Z,115.17
2023-01-23T18:15:58.371Z,111.50
2023-01-23T18:17:02.029Z,105.67
2023-01-23T18:18:17.409Z,103.17
2023-01-23T18:19:23.885Z,99.50
2023-01-23T18:20:28.555Z,99.67
2023-01-23T18:21:32.312Z,97.33
2023-01-23T18:22:34.980Z,93.50
2023-01-23T18:23:38.874Z,86.17
2023-01-23T18:24:42.615Z,82.33
2023-01-23T18:25:45.872Z,81.83
2023-01-23T18:26:54.834Z,83.00
2023-01-23T18:28:02.499Z,72.33
2023-01-23T18:29:17.544Z,65.00
2023-01-23T18:30:29.528Z,64.17
2023-01-23T18:31:38.556Z,71.50
2023-01-23T18:32:51.624Z,77.17
2023-01-23T18:34:06.074Z,88.50
2023-01-23T18:35:20.851Z,89.33
2023-01-23T18:36:31.777Z,88.33
2023-01-23T18:37:43.798Z,86.67
2023-01-23T18:38:59.140Z,85.00
2023-01-23T18:40:05.697Z,77.83
2023-01-23T18:41:15.477Z,77.83
2023-01-23T18:42:23.176Z,74.50
2023-01-23T18:43:34.642Z,71.67
2023-01-23T18:44:42.100Z,69.67
2023-01-23T18:45:46.045Z,68.83
2023-01-23T18:46:48.682Z,66.50
2023-01-23T18:47:52.267Z,67.83
2023-01-23T18:48:55.379Z,68.83
2023-01-23T18:49:59.039Z,67.00
2023-01-23T18:51:08.523Z,65.17
2023-01-23T18:52:13.717Z,66.00
2023-01-23T18:53:24.431Z,66.67
2023-01-23T18:54:34.523Z,65.00
2023-01-23T18:55:40.714Z,59.00
2023-01-23T18:56:49.238Z,51.67
2023-01-23T18:58:09.229Z,48.33
2023-01-23T18:59:19.855Z,52.67
2023-01-23T19:00:26.378Z,54.33
2023-01-23T19:01:37.535Z,55.00
2023-01-23T19:02:46.579Z,53.50
2023-01-23T19:03:50.736Z,50.83
2023-01-23T19:04:59.066Z,48.17
2023-01-23T19:06:02.817Z,47.50
2023-01-23T19:07:14.583Z,49.00
2023-01-23T19:08:28.024Z,51.33
2023-01-23T19:09:33.867Z,52.00
2023-01-23T19:10:48.075Z,51.17
2023-01-23T19:12:02.806Z,53.67
2023-01-23T19:13:13.230Z,53.00
2023-01-23T19:14:25.418Z,52.83
2023-01-23T19:15:30.791Z,56.00
2023-01-23T19:16:37.372Z,55.83
2023-01-23T19:17:44.244Z,54.50
2023-01-23T19:18:48.778Z,54.67
2023-01-23T19:20:00.428Z,54.67
2023-01-23T19:21:13.980Z,54.50
2023-01-23T19:22:19.902Z,51.67
2023-01-23T19:23:32.453Z,50.83
2023-01-23T19:24:36.172Z,51.00
2023-01-23T19:25:38.772Z,51.00
2023-01-23T19:26:43.009Z,51.00
2023-01-23T19:27:52.398Z,61.17
2023-01-23T19:28:56.157Z,75.67
2023-01-23T19:29:58.768Z,78.50
2023-01-23T19:31:02.531Z,82.67
2023-01-23T19:32:06.792Z,86.33
2023-01-23T19:33:13.332Z,86.83
2023-01-23T19:34:16.813Z,87.33
2023-01-23T19:35:19.292Z,87.67
2023-01-23T19:36:23.767Z,89.00
2023-01-23T19:37:28.543Z,86.33
2023-01-23T19:38:31.982Z,85.33
2023-01-23T19:39:34.560Z,88.17
2023-01-23T19:40:38.523Z,94.50
2023-01-23T19:41:44.733Z,97.00
2023-01-23T19:42:56.268Z,101.50
2023-01-23T19:44:04.943Z,101.67
2023-01-23T19:45:13.899Z,105.33
2023-01-23T19:46:17.529Z,103.67
2023-01-23T19:47:21.042Z,102.83
2023-01-23T19:48:24.500Z,105.33
2023-01-23T19:49:27.929Z,105.00
2023-01-23T19:50:30.385Z,103.67
2023-01-23T19:51:34.458Z,102.67
2023-01-23T19:52:38.294Z,102.00
2023-01-23T19:53:41.705Z,102.00
2023-01-23T19:54:44.170Z,101.83
2023-01-23T19:55:47.615Z,101.33
2023-01-23T19:56:50.084Z,101.50
2023-01-23T19:57:53.997Z,101.67
2023-01-23T19:58:57.454Z,103.00
2023-01-23T19:59:59.937Z,112.33
2023-01-23T20:01:03.544Z,130.33
2023-01-23T20:02:18.399Z,131.50
2023-01-23T20:03:21.852Z,133.00
2023-01-23T20:04:24.352Z,136.67
2023-01-23T20:05:28.148Z,138.33
2023-01-23T20:06:31.094Z,137.00
2023-01-23T20:07:34.566Z,134.17
2023-01-23T20:08:39.353Z,133.33
2023-01-23T20:09:42.772Z,132.17
2023-01-23T20:10:46.194Z,132.00
2023-01-23T20:11:48.626Z,132.33
2023-01-23T20:12:54.224Z,131.33
2023-01-23T20:13:56.723Z,131.00
2023-01-23T20:15:00.357Z,130.33
2023-01-23T20:16:07.529Z,130.00
2023-01-23T20:17:10.010Z,129.50
2023-01-23T20:18:13.463Z,128.17
2023-01-23T20:19:16.503Z,125.50
2023-01-23T20:20:21.024Z,121.67
2023-01-23T20:21:25.910Z,119.67
2023-01-23T20:22:29.191Z,118.50
2023-01-23T20:23:32.897Z,117.17
2023-01-23T20:24:37.710Z,116.17
2023-01-23T20:25:40.324Z,114.83
2023-01-23T20:26:43.790Z,111.83
2023-01-23T20:27:46.263Z,110.00
2023-01-23T20:28:50.157Z,107.83
2023-01-23T20:29:52.679Z,104.00
2023-01-23T20:30:56.689Z,92.17
2023-01-23T20:31:59.203Z,85.83
2023-01-23T20:33:05.324Z,84.50
2023-01-23T20:34:07.894Z,83.33
2023-01-23T20:35:12.003Z,79.00
2023-01-23T20:36:16.001Z,79.00
2023-01-23T20:37:18.493Z,79.83
2023-01-23T20:38:22.475Z,80.83
2023-01-23T20:39:24.917Z,82.33
2023-01-23T20:40:29.750Z,83.33
2023-01-23T20:41:32.262Z,84.00
2023-01-23T20:42:36.098Z,84.83
2023-01-23T20:43:38.592Z,85.50
2023-01-23T20:44:42.076Z,86.00
2023-01-23T20:45:48.051Z,93.67
2023-01-23T20:46:51.534Z,116.00
2023-01-23T20:47:54.021Z,108.17
2023-01-23T20:48:57.483Z,94.50
2023-01-23T20:50:00.830Z,80.33
2023-01-23T20:51:05.799Z,79.17
2023-01-23T20:52:27.209Z,78.50
2023-01-23T20:53:29.789Z,71.67
2023-01-23T20:54:33.212Z,70.33
2023-01-23T20:55:37.052Z,69.33
2023-01-23T20:56:40.501Z,61.00
2023-01-23T20:58:01.038Z,52.33
2023-01-23T20:59:23.020Z,48.67
2023-01-23T21:00:26.475Z,47.50
2023-01-23T21:01:51.024Z,46.33
2023-01-23T21:02:53.648Z,45.17
2023-01-23T21:03:57.434Z,45.00
2023-01-23T21:05:00.862Z,44.33
2023-01-23T21:06:03.575Z,44.83
2023-01-23T21:07:07.002Z,44.33
2023-01-23T21:08:09.488Z,43.83
2023-01-23T21:09:13.076Z,43.00
2023-01-23T21:10:15.935Z,43.00
2023-01-23T21:11:21.280Z,43.00
2023-01-23T21:12:23.724Z,43.00
2023-01-23T21:13:27.190Z,42.00
2023-01-23T21:14:29.852Z,42.00
2023-01-23T21:15:33.441Z,42.00
2023-01-23T21:16:36.136Z,42.00
2023-01-23T21:17:39.673Z,42.00
2023-01-23T21:18:44.778Z,41.00
2023-01-23T21:19:49.255Z,41.00
2023-01-23T21:20:51.764Z,41.00
2023-01-23T21:21:55.213Z,41.00
2023-01-23T21:22:58.688Z,41.00
2023-01-23T21:24:02.211Z,41.00
2023-01-23T21:25:06.071Z,41.00
2023-01-23T21:26:08.752Z,41.00
2023-01-23T21:27:14.273Z,40.50
2023-01-23T21:28:16.697Z,40.00
2023-01-23T21:29:20.169Z,40.00
2023-01-23T21:30:22.843Z,40.00
2023-01-23T21:31:27.643Z,40.00
2023-01-23T21:32:30.210Z,40.00
2023-01-23T21:33:33.617Z,40.00
2023-01-23T21:34:37.061Z,40.00